Fort Meade, Florida
Current Conditions -  °F | °C
As of 11:50 AM on Thursday 23 Oct 2014 (Local Time) from KBOW Reporting Station
Clear Clear  
Wind Chill: 77°   Ceiling: Unl
Heat Index: 79°   Visibility: 10mi
Dew Point: 59°   Wind: 12mph
Humidity: 54%   Direction: 60°ENE
Pressure: 30.01"   Gusts: NA
Location:  27.75°N, 81.8°W
Report Text: KBOW 231550Z 06010KT 10SM SKC 25/15 A3001
Loading
Personal Weather Stations






























Interactive Weather Map
Tropical Storm Tracking
New forecast layout! Learn more

10-Day Weather Forecast

Advertisements
Track Severe Weather on mobile